sensor_id;sensor_type;location;lat;lon;timestamp;P1;durP1;ratioP1;P2;durP2;ratioP2
60919;SDS011;59039;52.108;19.942;2023-02-01T00:01:25;9.00;;;4.80;;
60919;SDS011;59039;52.108;19.942;2023-02-01T00:03:50;7.20;;;4.30;;
60919;SDS011;59039;52.108;19.942;2023-02-01T00:06:18;9.10;;;4.20;;
60919;SDS011;59039;52.108;19.942;2023-02-01T00:08:46;7.20;;;4.00;;
60919;SDS011;59039;52.108;19.942;2023-02-01T00:11:17;7.20;;;3.80;;
60919;SDS011;59039;52.108;19.942;2023-02-01T00:13:48;10.30;;;4.10;;
60919;SDS011;59039;52.108;19.942;2023-02-01T00:16:26;6.30;;;3.70;;
60919;SDS011;59039;52.108;19.942;2023-02-01T00:19:35;6.50;;;3.50;;
60919;SDS011;59039;52.108;19.942;2023-02-01T00:21:53;6.80;;;3.70;;
60919;SDS011;59039;52.108;19.942;2023-02-01T00:24:18;8.00;;;3.20;;
60919;SDS011;59039;52.108;19.942;2023-02-01T00:26:47;8.90;;;3.60;;
60919;SDS011;59039;52.108;19.942;2023-02-01T00:29:16;13.40;;;3.40;;
60919;SDS011;59039;52.108;19.942;2023-02-01T00:31:45;7.20;;;3.20;;
60919;SDS011;59039;52.108;19.942;2023-02-01T00:34:14;5.50;;;3.50;;
60919;SDS011;59039;52.108;19.942;2023-02-01T00:36:41;6.30;;;3.10;;
60919;SDS011;59039;52.108;19.942;2023-02-01T00:39:10;11.80;;;3.80;;
60919;SDS011;59039;52.108;19.942;2023-02-01T00:41:37;9.30;;;3.30;;
60919;SDS011;59039;52.108;19.942;2023-02-01T00:44:10;8.30;;;3.70;;
60919;SDS011;59039;52.108;19.942;2023-02-01T00:46:36;12.40;;;3.90;;
60919;SDS011;59039;52.108;19.942;2023-02-01T00:51:37;8.40;;;3.10;;
60919;SDS011;59039;52.108;19.942;2023-02-01T00:54:10;9.10;;;3.20;;
60919;SDS011;59039;52.108;19.942;2023-02-01T00:59:41;10.00;;;3.70;;
60919;SDS011;59039;52.108;19.942;2023-02-01T01:02:12;5.50;;;3.30;;
60919;SDS011;59039;52.108;19.942;2023-02-01T01:04:48;8.80;;;3.60;;
60919;SDS011;59039;52.108;19.942;2023-02-01T01:07:16;6.60;;;3.20;;
60919;SDS011;59039;52.108;19.942;2023-02-01T01:09:54;9.60;;;4.30;;
60919;SDS011;59039;52.108;19.942;2023-02-01T01:12:22;15.50;;;4.00;;
60919;SDS011;59039;52.108;19.942;2023-02-01T01:14:59;12.00;;;3.10;;
60919;SDS011;59039;52.108;19.942;2023-02-01T01:17:37;5.50;;;2.90;;
60919;SDS011;59039;52.108;19.942;2023-02-01T01:20:14;6.50;;;2.90;;
60919;SDS011;59039;52.108;19.942;2023-02-01T01:22:42;7.30;;;4.00;;
60919;SDS011;59039;52.108;19.942;2023-02-01T01:25:16;8.90;;;3.70;;
60919;SDS011;59039;52.108;19.942;2023-02-01T01:27:44;6.90;;;3.60;;
60919;SDS011;59039;52.108;19.942;2023-02-01T01:30:12;10.70;;;4.00;;
60919;SDS011;59039;52.108;19.942;2023-02-01T01:32:41;8.50;;;3.50;;
60919;SDS011;59039;52.108;19.942;2023-02-01T01:35:12;12.90;;;3.90;;
60919;SDS011;59039;52.108;19.942;2023-02-01T01:37:40;11.70;;;3.70;;
60919;SDS011;59039;52.108;19.942;2023-02-01T01:40:06;9.80;;;3.20;;
60919;SDS011;59039;52.108;19.942;2023-02-01T01:42:52;5.30;;;2.80;;
60919;SDS011;59039;52.108;19.942;2023-02-01T01:45:36;11.00;;;3.40;;
60919;SDS011;59039;52.108;19.942;2023-02-01T01:48:05;8.30;;;3.10;;
60919;SDS011;59039;52.108;19.942;2023-02-01T01:53:49;10.10;;;2.90;;
60919;SDS011;59039;52.108;19.942;2023-02-01T01:56:30;8.30;;;2.50;;
60919;SDS011;59039;52.108;19.942;2023-02-01T01:58:59;9.80;;;2.60;;
60919;SDS011;59039;52.108;19.942;2023-02-01T02:01:33;11.70;;;2.60;;
60919;SDS011;59039;52.108;19.942;2023-02-01T02:06:59;15.50;;;2.90;;
60919;SDS011;59039;52.108;19.942;2023-02-01T02:09:48;14.30;;;3.10;;
60919;SDS011;59039;52.108;19.942;2023-02-01T02:15:13;10.40;;;2.90;;
60919;SDS011;59039;52.108;19.942;2023-02-01T02:24:02;10.10;;;3.00;;
60919;SDS011;59039;52.108;19.942;2023-02-01T02:29:49;15.90;;;4.80;;
60919;SDS011;59039;52.108;19.942;2023-02-01T02:35:13;11.90;;;3.60;;
60919;SDS011;59039;52.108;19.942;2023-02-01T02:37:46;7.90;;;3.10;;
60919;SDS011;59039;52.108;19.942;2023-02-01T02:40:48;6.20;;;2.50;;
60919;SDS011;59039;52.108;19.942;2023-02-01T02:45:49;13.90;;;3.90;;
60919;SDS011;59039;52.108;19.942;2023-02-01T02:48:22;22.80;;;5.10;;
60919;SDS011;59039;52.108;19.942;2023-02-01T02:54:18;14.90;;;3.80;;
60919;SDS011;59039;52.108;19.942;2023-02-01T02:56:50;8.80;;;3.30;;
60919;SDS011;59039;52.108;19.942;2023-02-01T02:59:24;18.20;;;4.90;;
60919;SDS011;59039;52.108;19.942;2023-02-01T03:04:38;14.30;;;3.60;;
60919;SDS011;59039;52.108;19.942;2023-02-01T03:10:07;14.10;;;3.60;;
60919;SDS011;59039;52.108;19.942;2023-02-01T03:12:45;14.00;;;3.90;;
60919;SDS011;59039;52.108;19.942;2023-02-01T03:15:14;18.20;;;5.00;;
60919;SDS011;59039;52.108;19.942;2023-02-01T03:17:40;23.50;;;6.20;;
60919;SDS011;59039;52.108;19.942;2023-02-01T03:20:17;15.30;;;4.90;;
60919;SDS011;59039;52.108;19.942;2023-02-01T03:22:47;15.40;;;4.90;;
60919;SDS011;59039;52.108;19.942;2023-02-01T03:25:21;21.80;;;6.90;;
60919;SDS011;59039;52.108;19.942;2023-02-01T03:27:55;26.30;;;7.50;;
60919;SDS011;59039;52.108;19.942;2023-02-01T03:33:00;21.60;;;7.20;;
60919;SDS011;59039;52.108;19.942;2023-02-01T03:41:30;13.70;;;3.30;;
60919;SDS011;59039;52.108;19.942;2023-02-01T03:44:35;12.80;;;3.70;;
60919;SDS011;59039;52.108;19.942;2023-02-01T03:47:10;14.80;;;4.20;;
60919;SDS011;59039;52.108;19.942;2023-02-01T03:50:00;12.30;;;3.90;;
60919;SDS011;59039;52.108;19.942;2023-02-01T03:52:30;24.10;;;8.30;;
60919;SDS011;59039;52.108;19.942;2023-02-01T03:55:13;24.70;;;8.40;;
60919;SDS011;59039;52.108;19.942;2023-02-01T03:57:46;20.30;;;5.50;;
60919;SDS011;59039;52.108;19.942;2023-02-01T04:03:17;20.70;;;4.90;;
60919;SDS011;59039;52.108;19.942;2023-02-01T04:05:43;13.70;;;4.30;;
60919;SDS011;59039;52.108;19.942;2023-02-01T04:08:20;18.50;;;4.90;;
60919;SDS011;59039;52.108;19.942;2023-02-01T04:10:49;21.90;;;5.00;;
60919;SDS011;59039;52.108;19.942;2023-02-01T04:13:15;20.60;;;6.10;;
60919;SDS011;59039;52.108;19.942;2023-02-01T04:15:40;23.70;;;7.60;;
60919;SDS011;59039;52.108;19.942;2023-02-01T04:18:08;23.40;;;6.40;;
60919;SDS011;59039;52.108;19.942;2023-02-01T04:20:36;24.10;;;7.30;;
60919;SDS011;59039;52.108;19.942;2023-02-01T04:23:05;30.50;;;7.60;;
60919;SDS011;59039;52.108;19.942;2023-02-01T04:25:38;25.40;;;6.40;;
60919;SDS011;59039;52.108;19.942;2023-02-01T04:28:09;27.50;;;6.40;;
60919;SDS011;59039;52.108;19.942;2023-02-01T04:30:35;31.90;;;7.00;;
60919;SDS011;59039;52.108;19.942;2023-02-01T04:33:00;29.90;;;8.20;;
60919;SDS011;59039;52.108;19.942;2023-02-01T04:35:36;24.50;;;5.80;;
60919;SDS011;59039;52.108;19.942;2023-02-01T04:38:05;21.30;;;6.80;;
60919;SDS011;59039;52.108;19.942;2023-02-01T04:40:33;27.10;;;7.40;;
60919;SDS011;59039;52.108;19.942;2023-02-01T04:43:00;31.20;;;7.70;;
60919;SDS011;59039;52.108;19.942;2023-02-01T04:45:31;21.80;;;6.70;;
60919;SDS011;59039;52.108;19.942;2023-02-01T04:47:56;15.10;;;5.80;;
60919;SDS011;59039;52.108;19.942;2023-02-01T04:50:22;18.70;;;5.70;;
60919;SDS011;59039;52.108;19.942;2023-02-01T04:52:52;26.30;;;7.50;;
60919;SDS011;59039;52.108;19.942;2023-02-01T04:55:28;20.90;;;5.90;;
60919;SDS011;59039;52.108;19.942;2023-02-01T05:01:09;20.40;;;5.90;;
60919;SDS011;59039;52.108;19.942;2023-02-01T05:03:35;16.50;;;4.70;;
60919;SDS011;59039;52.108;19.942;2023-02-01T05:06:00;19.50;;;5.40;;
60919;SDS011;59039;52.108;19.942;2023-02-01T05:08:29;35.20;;;7.80;;
60919;SDS011;59039;52.108;19.942;2023-02-01T05:11:10;21.40;;;4.90;;
60919;SDS011;59039;52.108;19.942;2023-02-01T05:13:56;29.80;;;5.20;;
60919;SDS011;59039;52.108;19.942;2023-02-01T05:16:26;20.00;;;5.30;;
60919;SDS011;59039;52.108;19.942;2023-02-01T05:19:12;23.70;;;8.50;;
60919;SDS011;59039;52.108;19.942;2023-02-01T05:21:46;20.70;;;7.00;;
60919;SDS011;59039;52.108;19.942;2023-02-01T05:24:14;21.00;;;5.90;;
60919;SDS011;59039;52.108;19.942;2023-02-01T05:26:41;20.10;;;5.30;;
60919;SDS011;59039;52.108;19.942;2023-02-01T05:29:28;21.00;;;6.00;;
60919;SDS011;59039;52.108;19.942;2023-02-01T05:31:53;19.50;;;5.90;;
60919;SDS011;59039;52.108;19.942;2023-02-01T05:34:22;23.60;;;6.90;;
60919;SDS011;59039;52.108;19.942;2023-02-01T05:36:58;23.60;;;6.10;;
60919;SDS011;59039;52.108;19.942;2023-02-01T05:39:29;23.00;;;7.20;;
60919;SDS011;59039;52.108;19.942;2023-02-01T05:41:54;32.80;;;10.20;;
60919;SDS011;59039;52.108;19.942;2023-02-01T05:44:22;34.10;;;9.00;;
60919;SDS011;59039;52.108;19.942;2023-02-01T05:47:08;28.10;;;8.80;;
60919;SDS011;59039;52.108;19.942;2023-02-01T05:49:36;27.40;;;8.30;;
60919;SDS011;59039;52.108;19.942;2023-02-01T05:52:01;22.00;;;6.80;;
60919;SDS011;59039;52.108;19.942;2023-02-01T05:54:30;17.60;;;6.50;;
60919;SDS011;59039;52.108;19.942;2023-02-01T05:56:56;20.40;;;5.70;;
60919;SDS011;59039;52.108;19.942;2023-02-01T05:59:21;18.50;;;7.10;;
60919;SDS011;59039;52.108;19.942;2023-02-01T06:01:49;16.00;;;6.00;;
60919;SDS011;59039;52.108;19.942;2023-02-01T06:04:15;15.60;;;6.50;;
60919;SDS011;59039;52.108;19.942;2023-02-01T06:06:46;19.30;;;6.30;;
60919;SDS011;59039;52.108;19.942;2023-02-01T06:09:13;19.50;;;6.80;;
60919;SDS011;59039;52.108;19.942;2023-02-01T06:11:59;17.40;;;7.30;;
60919;SDS011;59039;52.108;19.942;2023-02-01T06:14:25;38.80;;;10.30;;
60919;SDS011;59039;52.108;19.942;2023-02-01T06:16:50;30.20;;;9.00;;
60919;SDS011;59039;52.108;19.942;2023-02-01T06:19:16;26.40;;;7.60;;
60919;SDS011;59039;52.108;19.942;2023-02-01T06:21:43;26.20;;;9.30;;
60919;SDS011;59039;52.108;19.942;2023-02-01T06:24:09;34.40;;;10.00;;
60919;SDS011;59039;52.108;19.942;2023-02-01T06:26:34;27.70;;;8.80;;
60919;SDS011;59039;52.108;19.942;2023-02-01T06:29:00;25.30;;;9.30;;
60919;SDS011;59039;52.108;19.942;2023-02-01T06:31:27;20.80;;;7.40;;
60919;SDS011;59039;52.108;19.942;2023-02-01T06:33:56;26.10;;;7.80;;
60919;SDS011;59039;52.108;19.942;2023-02-01T06:36:24;22.60;;;8.40;;
60919;SDS011;59039;52.108;19.942;2023-02-01T06:38:52;19.40;;;8.70;;
60919;SDS011;59039;52.108;19.942;2023-02-01T06:41:18;32.80;;;10.40;;
60919;SDS011;59039;52.108;19.942;2023-02-01T06:43:44;26.50;;;8.20;;
60919;SDS011;59039;52.108;19.942;2023-02-01T06:46:12;27.40;;;8.60;;
60919;SDS011;59039;52.108;19.942;2023-02-01T06:51:25;21.50;;;9.20;;
60919;SDS011;59039;52.108;19.942;2023-02-01T06:53:51;22.90;;;7.90;;
60919;SDS011;59039;52.108;19.942;2023-02-01T06:56:38;20.30;;;8.30;;
60919;SDS011;59039;52.108;19.942;2023-02-01T06:59:03;22.40;;;8.00;;
60919;SDS011;59039;52.108;19.942;2023-02-01T07:01:29;19.70;;;7.90;;
60919;SDS011;59039;52.108;19.942;2023-02-01T07:04:04;20.30;;;7.80;;
60919;SDS011;59039;52.108;19.942;2023-02-01T07:06:37;28.40;;;8.90;;
60919;SDS011;59039;52.108;19.942;2023-02-01T07:09:13;20.20;;;8.10;;
60919;SDS011;59039;52.108;19.942;2023-02-01T07:14:03;28.70;;;9.30;;
60919;SDS011;59039;52.108;19.942;2023-02-01T07:16:37;45.50;;;13.40;;
60919;SDS011;59039;52.108;19.942;2023-02-01T07:19:06;25.30;;;8.60;;
60919;SDS011;59039;52.108;19.942;2023-02-01T07:21:47;18.30;;;7.20;;
60919;SDS011;59039;52.108;19.942;2023-02-01T07:24:13;14.00;;;5.60;;
60919;SDS011;59039;52.108;19.942;2023-02-01T07:26:41;20.10;;;6.00;;
60919;SDS011;59039;52.108;19.942;2023-02-01T07:29:10;18.40;;;5.70;;
60919;SDS011;59039;52.108;19.942;2023-02-01T07:31:51;20.80;;;5.60;;
60919;SDS011;59039;52.108;19.942;2023-02-01T07:34:23;17.70;;;6.10;;
60919;SDS011;59039;52.108;19.942;2023-02-01T07:36:49;23.70;;;6.30;;
60919;SDS011;59039;52.108;19.942;2023-02-01T07:39:19;19.50;;;5.00;;
60919;SDS011;59039;52.108;19.942;2023-02-01T07:41:45;21.30;;;6.30;;
60919;SDS011;59039;52.108;19.942;2023-02-01T07:44:32;20.50;;;8.80;;
60919;SDS011;59039;52.108;19.942;2023-02-01T07:47:09;41.10;;;17.30;;
60919;SDS011;59039;52.108;19.942;2023-02-01T07:49:49;32.50;;;13.70;;
60919;SDS011;59039;52.108;19.942;2023-02-01T07:52:17;18.10;;;7.40;;
60919;SDS011;59039;52.108;19.942;2023-02-01T07:55:02;19.00;;;6.50;;
60919;SDS011;59039;52.108;19.942;2023-02-01T07:57:34;21.20;;;6.60;;
60919;SDS011;59039;52.108;19.942;2023-02-01T08:00:20;21.40;;;7.40;;
60919;SDS011;59039;52.108;19.942;2023-02-01T08:02:45;21.30;;;8.20;;
60919;SDS011;59039;52.108;19.942;2023-02-01T08:05:11;48.50;;;14.30;;
60919;SDS011;59039;52.108;19.942;2023-02-01T08:10:18;39.70;;;11.10;;
60919;SDS011;59039;52.108;19.942;2023-02-01T08:12:47;38.50;;;15.10;;
60919;SDS011;59039;52.108;19.942;2023-02-01T08:18:00;34.00;;;10.80;;
60919;SDS011;59039;52.108;19.942;2023-02-01T08:20:28;23.00;;;8.40;;
60919;SDS011;59039;52.108;19.942;2023-02-01T08:23:01;26.00;;;10.50;;
60919;SDS011;59039;52.108;19.942;2023-02-01T08:26:32;36.40;;;10.90;;
60919;SDS011;59039;52.108;19.942;2023-02-01T08:28:38;26.30;;;8.30;;
60919;SDS011;59039;52.108;19.942;2023-02-01T08:31:05;16.90;;;7.50;;
60919;SDS011;59039;52.108;19.942;2023-02-01T08:33:42;18.90;;;7.40;;
60919;SDS011;59039;52.108;19.942;2023-02-01T08:36:10;14.20;;;7.20;;
60919;SDS011;59039;52.108;19.942;2023-02-01T08:38:39;21.30;;;6.50;;
60919;SDS011;59039;52.108;19.942;2023-02-01T08:41:12;33.50;;;10.80;;
60919;SDS011;59039;52.108;19.942;2023-02-01T08:43:49;19.20;;;7.10;;
60919;SDS011;59039;52.108;19.942;2023-02-01T08:49:22;18.80;;;6.30;;
60919;SDS011;59039;52.108;19.942;2023-02-01T08:51:50;22.90;;;6.30;;
60919;SDS011;59039;52.108;19.942;2023-02-01T08:54:16;16.40;;;4.50;;
60919;SDS011;59039;52.108;19.942;2023-02-01T08:57:04;14.10;;;4.70;;
60919;SDS011;59039;52.108;19.942;2023-02-01T08:59:29;29.60;;;5.80;;
60919;SDS011;59039;52.108;19.942;2023-02-01T09:02:23;22.90;;;6.30;;
60919;SDS011;59039;52.108;19.942;2023-02-01T09:04:55;24.00;;;6.70;;
60919;SDS011;59039;52.108;19.942;2023-02-01T09:07:32;26.00;;;6.70;;
60919;SDS011;59039;52.108;19.942;2023-02-01T09:10:00;34.70;;;10.20;;
60919;SDS011;59039;52.108;19.942;2023-02-01T09:12:36;34.20;;;9.20;;
60919;SDS011;59039;52.108;19.942;2023-02-01T09:15:10;23.20;;;6.60;;
60919;SDS011;59039;52.108;19.942;2023-02-01T09:17:38;17.40;;;6.60;;
60919;SDS011;59039;52.108;19.942;2023-02-01T09:20:08;25.60;;;7.40;;
60919;SDS011;59039;52.108;19.942;2023-02-01T09:22:56;27.10;;;8.80;;
60919;SDS011;59039;52.108;19.942;2023-02-01T09:25:22;30.60;;;10.20;;
60919;SDS011;59039;52.108;19.942;2023-02-01T09:27:48;25.20;;;6.90;;
60919;SDS011;59039;52.108;19.942;2023-02-01T09:30:16;21.90;;;6.40;;
60919;SDS011;59039;52.108;19.942;2023-02-01T09:32:42;19.10;;;6.90;;
60919;SDS011;59039;52.108;19.942;2023-02-01T09:35:10;24.70;;;7.20;;
60919;SDS011;59039;52.108;19.942;2023-02-01T09:37:38;21.60;;;7.00;;
60919;SDS011;59039;52.108;19.942;2023-02-01T09:40:25;25.90;;;9.80;;
60919;SDS011;59039;52.108;19.942;2023-02-01T09:51:20;21.60;;;7.10;;
60919;SDS011;59039;52.108;19.942;2023-02-01T09:54:22;21.50;;;6.70;;
60919;SDS011;59039;52.108;19.942;2023-02-01T10:00:15;23.80;;;8.10;;
60919;SDS011;59039;52.108;19.942;2023-02-01T10:02:53;27.60;;;7.40;;
60919;SDS011;59039;52.108;19.942;2023-02-01T10:05:44;28.80;;;7.40;;
60919;SDS011;59039;52.108;19.942;2023-02-01T10:14:42;33.80;;;9.50;;
60919;SDS011;59039;52.108;19.942;2023-02-01T10:17:40;31.00;;;10.10;;
60919;SDS011;59039;52.108;19.942;2023-02-01T10:28:51;28.30;;;11.50;;
60919;SDS011;59039;52.108;19.942;2023-02-01T10:31:39;32.10;;;12.30;;
60919;SDS011;59039;52.108;19.942;2023-02-01T10:34:13;37.90;;;10.40;;
60919;SDS011;59039;52.108;19.942;2023-02-01T10:37:29;32.00;;;11.80;;
60919;SDS011;59039;52.108;19.942;2023-02-01T10:45:28;35.40;;;11.70;;
60919;SDS011;59039;52.108;19.942;2023-02-01T10:56:56;34.50;;;11.80;;
60919;SDS011;59039;52.108;19.942;2023-02-01T10:59:24;36.10;;;12.10;;
60919;SDS011;59039;52.108;19.942;2023-02-01T11:02:03;34.30;;;11.50;;
60919;SDS011;59039;52.108;19.942;2023-02-01T11:04:51;43.60;;;12.80;;
60919;SDS011;59039;52.108;19.942;2023-02-01T11:07:51;37.40;;;13.30;;
60919;SDS011;59039;52.108;19.942;2023-02-01T11:13:18;32.80;;;11.80;;
60919;SDS011;59039;52.108;19.942;2023-02-01T11:15:49;31.50;;;11.80;;
60919;SDS011;59039;52.108;19.942;2023-02-01T11:21:20;17.90;;;8.70;;
60919;SDS011;59039;52.108;19.942;2023-02-01T11:24:00;24.80;;;8.10;;
60919;SDS011;59039;52.108;19.942;2023-02-01T11:26:29;24.00;;;9.80;;
60919;SDS011;59039;52.108;19.942;2023-02-01T11:29:10;27.80;;;9.60;;
60919;SDS011;59039;52.108;19.942;2023-02-01T11:31:44;22.40;;;8.20;;
60919;SDS011;59039;52.108;19.942;2023-02-01T11:34:15;24.50;;;9.30;;
60919;SDS011;59039;52.108;19.942;2023-02-01T11:36:44;25.30;;;9.60;;
60919;SDS011;59039;52.108;19.942;2023-02-01T11:39:25;31.10;;;10.90;;
60919;SDS011;59039;52.108;19.942;2023-02-01T11:42:11;25.10;;;10.10;;
60919;SDS011;59039;52.108;19.942;2023-02-01T11:48:08;30.20;;;9.40;;
60919;SDS011;59039;52.108;19.942;2023-02-01T11:54:01;33.70;;;12.00;;
60919;SDS011;59039;52.108;19.942;2023-02-01T11:57:12;33.90;;;11.30;;
60919;SDS011;59039;52.108;19.942;2023-02-01T12:08:52;33.20;;;11.10;;
60919;SDS011;59039;52.108;19.942;2023-02-01T12:11:53;42.20;;;14.60;;
60919;SDS011;59039;52.108;19.942;2023-02-01T12:32:29;29.10;;;11.50;;
60919;SDS011;59039;52.108;19.942;2023-02-01T12:49:59;44.00;;;15.90;;
60919;SDS011;59039;52.108;19.942;2023-02-01T12:52:40;64.20;;;21.90;;
60919;SDS011;59039;52.108;19.942;2023-02-01T13:02:33;30.00;;;9.00;;
60919;SDS011;59039;52.108;19.942;2023-02-01T13:04:36;19.90;;;7.60;;
60919;SDS011;59039;52.108;19.942;2023-02-01T13:07:45;22.30;;;8.70;;
60919;SDS011;59039;52.108;19.942;2023-02-01T13:19:49;27.80;;;11.90;;
60919;SDS011;59039;52.108;19.942;2023-02-01T13:28:16;28.40;;;10.70;;
60919;SDS011;59039;52.108;19.942;2023-02-01T13:39:33;34.20;;;13.30;;
60919;SDS011;59039;52.108;19.942;2023-02-01T13:42:21;28.10;;;11.60;;
60919;SDS011;59039;52.108;19.942;2023-02-01T13:45:20;33.60;;;12.40;;
60919;SDS011;59039;52.108;19.942;2023-02-01T13:47:55;30.60;;;10.90;;
60919;SDS011;59039;52.108;19.942;2023-02-01T13:55:36;32.30;;;14.90;;
60919;SDS011;59039;52.108;19.942;2023-02-01T13:58:36;30.20;;;12.60;;
60919;SDS011;59039;52.108;19.942;2023-02-01T14:04:44;25.70;;;11.50;;
60919;SDS011;59039;52.108;19.942;2023-02-01T14:07:19;20.40;;;10.40;;
60919;SDS011;59039;52.108;19.942;2023-02-01T14:09:58;28.00;;;12.10;;
60919;SDS011;59039;52.108;19.942;2023-02-01T14:12:49;26.10;;;10.40;;
60919;SDS011;59039;52.108;19.942;2023-02-01T14:17:50;34.10;;;12.70;;
60919;SDS011;59039;52.108;19.942;2023-02-01T14:23:28;40.10;;;14.30;;
60919;SDS011;59039;52.108;19.942;2023-02-01T14:26:04;42.30;;;15.60;;
60919;SDS011;59039;52.108;19.942;2023-02-01T14:28:35;27.90;;;13.30;;
60919;SDS011;59039;52.108;19.942;2023-02-01T14:31:13;32.40;;;13.10;;
60919;SDS011;59039;52.108;19.942;2023-02-01T14:33:42;33.00;;;13.80;;
60919;SDS011;59039;52.108;19.942;2023-02-01T14:36:12;32.40;;;14.30;;
60919;SDS011;59039;52.108;19.942;2023-02-01T14:38:53;26.90;;;12.40;;
60919;SDS011;59039;52.108;19.942;2023-02-01T14:41:34;26.90;;;12.10;;
60919;SDS011;59039;52.108;19.942;2023-02-01T14:47:04;23.20;;;11.40;;
60919;SDS011;59039;52.108;19.942;2023-02-01T14:50:13;25.30;;;12.10;;
60919;SDS011;59039;52.108;19.942;2023-02-01T14:56:09;31.00;;;14.30;;
60919;SDS011;59039;52.108;19.942;2023-02-01T15:01:42;28.10;;;12.80;;
60919;SDS011;59039;52.108;19.942;2023-02-01T15:04:18;34.60;;;15.00;;
60919;SDS011;59039;52.108;19.942;2023-02-01T15:06:46;40.50;;;18.40;;
60919;SDS011;59039;52.108;19.942;2023-02-01T15:14:35;38.30;;;15.10;;
60919;SDS011;59039;52.108;19.942;2023-02-01T15:20:11;41.90;;;17.70;;
60919;SDS011;59039;52.108;19.942;2023-02-01T15:23:00;54.10;;;20.10;;
60919;SDS011;59039;52.108;19.942;2023-02-01T15:25:36;60.50;;;24.50;;
60919;SDS011;59039;52.108;19.942;2023-02-01T15:28:13;65.60;;;26.10;;
60919;SDS011;59039;52.108;19.942;2023-02-01T15:30:40;57.90;;;24.10;;
60919;SDS011;59039;52.108;19.942;2023-02-01T15:33:17;59.40;;;27.50;;
60919;SDS011;59039;52.108;19.942;2023-02-01T15:35:44;44.10;;;22.30;;
60919;SDS011;59039;52.108;19.942;2023-02-01T15:45:59;40.70;;;18.30;;
60919;SDS011;59039;52.108;19.942;2023-02-01T15:48:26;44.10;;;19.60;;
60919;SDS011;59039;52.108;19.942;2023-02-01T15:51:03;49.40;;;22.00;;
60919;SDS011;59039;52.108;19.942;2023-02-01T15:53:37;45.40;;;22.20;;
60919;SDS011;59039;52.108;19.942;2023-02-01T15:56:03;43.40;;;19.20;;
60919;SDS011;59039;52.108;19.942;2023-02-01T15:58:29;44.90;;;20.50;;
60919;SDS011;59039;52.108;19.942;2023-02-01T16:01:02;35.70;;;17.70;;
60919;SDS011;59039;52.108;19.942;2023-02-01T16:03:40;40.60;;;18.10;;
60919;SDS011;59039;52.108;19.942;2023-02-01T16:11:52;50.20;;;21.90;;
60919;SDS011;59039;52.108;19.942;2023-02-01T16:14:21;49.90;;;18.20;;
60919;SDS011;59039;52.108;19.942;2023-02-01T16:16:47;33.40;;;17.60;;
60919;SDS011;59039;52.108;19.942;2023-02-01T16:19:13;39.30;;;17.30;;
60919;SDS011;59039;52.108;19.942;2023-02-01T16:24:14;32.90;;;13.80;;
60919;SDS011;59039;52.108;19.942;2023-02-01T16:26:40;32.60;;;15.30;;
60919;SDS011;59039;52.108;19.942;2023-02-01T16:29:05;36.20;;;16.70;;
60919;SDS011;59039;52.108;19.942;2023-02-01T16:31:33;46.00;;;20.60;;
60919;SDS011;59039;52.108;19.942;2023-02-01T16:34:04;43.70;;;21.50;;
60919;SDS011;59039;52.108;19.942;2023-02-01T16:36:30;46.50;;;20.50;;
60919;SDS011;59039;52.108;19.942;2023-02-01T16:39:15;49.50;;;20.60;;
60919;SDS011;59039;52.108;19.942;2023-02-01T16:41:41;47.00;;;19.00;;
60919;SDS011;59039;52.108;19.942;2023-02-01T16:44:06;41.50;;;16.90;;
60919;SDS011;59039;52.108;19.942;2023-02-01T16:46:32;39.20;;;17.00;;
60919;SDS011;59039;52.108;19.942;2023-02-01T16:49:03;40.40;;;16.50;;
60919;SDS011;59039;52.108;19.942;2023-02-01T16:51:30;40.30;;;16.20;;
60919;SDS011;59039;52.108;19.942;2023-02-01T16:53:57;48.80;;;16.80;;
60919;SDS011;59039;52.108;19.942;2023-02-01T16:56:24;44.10;;;16.60;;
60919;SDS011;59039;52.108;19.942;2023-02-01T16:58:55;41.70;;;16.80;;
60919;SDS011;59039;52.108;19.942;2023-02-01T17:01:20;40.20;;;16.20;;
60919;SDS011;59039;52.108;19.942;2023-02-01T17:03:46;40.50;;;17.70;;
60919;SDS011;59039;52.108;19.942;2023-02-01T17:06:13;46.40;;;19.00;;
60919;SDS011;59039;52.108;19.942;2023-02-01T17:08:43;43.00;;;17.80;;
60919;SDS011;59039;52.108;19.942;2023-02-01T17:11:14;37.60;;;13.50;;
60919;SDS011;59039;52.108;19.942;2023-02-01T17:13:40;36.70;;;13.60;;
60919;SDS011;59039;52.108;19.942;2023-02-01T17:18:45;26.80;;;12.00;;
60919;SDS011;59039;52.108;19.942;2023-02-01T17:21:17;33.00;;;12.60;;
60919;SDS011;59039;52.108;19.942;2023-02-01T17:23:43;39.50;;;15.60;;
60919;SDS011;59039;52.108;19.942;2023-02-01T17:26:31;43.80;;;15.90;;
60919;SDS011;59039;52.108;19.942;2023-02-01T17:28:59;40.90;;;14.40;;
60919;SDS011;59039;52.108;19.942;2023-02-01T17:31:24;35.70;;;15.50;;
60919;SDS011;59039;52.108;19.942;2023-02-01T17:33:50;33.30;;;14.10;;
60919;SDS011;59039;52.108;19.942;2023-02-01T17:36:16;37.80;;;14.70;;
60919;SDS011;59039;52.108;19.942;2023-02-01T17:38:44;30.40;;;12.80;;
60919;SDS011;59039;52.108;19.942;2023-02-01T17:41:31;37.20;;;14.60;;
60919;SDS011;59039;52.108;19.942;2023-02-01T17:43:56;39.00;;;14.90;;
60919;SDS011;59039;52.108;19.942;2023-02-01T17:46:21;30.90;;;13.60;;
60919;SDS011;59039;52.108;19.942;2023-02-01T17:48:46;28.70;;;12.10;;
60919;SDS011;59039;52.108;19.942;2023-02-01T17:51:14;36.10;;;16.60;;
60919;SDS011;59039;52.108;19.942;2023-02-01T17:53:42;27.80;;;12.10;;
60919;SDS011;59039;52.108;19.942;2023-02-01T17:56:10;30.70;;;12.20;;
60919;SDS011;59039;52.108;19.942;2023-02-01T17:58:39;32.80;;;14.70;;
60919;SDS011;59039;52.108;19.942;2023-02-01T18:01:04;32.30;;;13.70;;
60919;SDS011;59039;52.108;19.942;2023-02-01T18:03:32;27.90;;;12.40;;
60919;SDS011;59039;52.108;19.942;2023-02-01T18:06:00;31.60;;;15.30;;
60919;SDS011;59039;52.108;19.942;2023-02-01T18:08:26;32.70;;;14.00;;
60919;SDS011;59039;52.108;19.942;2023-02-01T18:10:57;33.60;;;14.40;;
60919;SDS011;59039;52.108;19.942;2023-02-01T18:15:52;25.20;;;12.30;;
60919;SDS011;59039;52.108;19.942;2023-02-01T18:18:17;36.90;;;15.40;;
60919;SDS011;59039;52.108;19.942;2023-02-01T18:20:43;30.20;;;14.20;;
60919;SDS011;59039;52.108;19.942;2023-02-01T18:23:12;35.60;;;14.00;;
60919;SDS011;59039;52.108;19.942;2023-02-01T18:25:42;30.60;;;13.40;;
60919;SDS011;59039;52.108;19.942;2023-02-01T18:28:10;24.20;;;12.50;;
60919;SDS011;59039;52.108;19.942;2023-02-01T18:30:36;28.00;;;12.80;;
60919;SDS011;59039;52.108;19.942;2023-02-01T18:33:01;41.40;;;17.30;;
60919;SDS011;59039;52.108;19.942;2023-02-01T18:35:27;43.50;;;19.60;;
60919;SDS011;59039;52.108;19.942;2023-02-01T18:37:56;57.10;;;21.30;;
60919;SDS011;59039;52.108;19.942;2023-02-01T18:40:29;42.50;;;18.70;;
60919;SDS011;59039;52.108;19.942;2023-02-01T18:43:01;47.30;;;16.60;;
60919;SDS011;59039;52.108;19.942;2023-02-01T18:45:37;33.20;;;13.40;;
60919;SDS011;59039;52.108;19.942;2023-02-01T18:48:08;36.50;;;12.70;;
60919;SDS011;59039;52.108;19.942;2023-02-01T18:50:35;37.20;;;14.10;;
60919;SDS011;59039;52.108;19.942;2023-02-01T18:53:03;39.30;;;14.90;;
60919;SDS011;59039;52.108;19.942;2023-02-01T18:55:49;39.60;;;15.40;;
60919;SDS011;59039;52.108;19.942;2023-02-01T18:58:18;42.50;;;17.20;;